.
WxDataArchive / Data Records for 2014-06-04
2014-06-03 June 2014 2014-06-05

Data Records for Wednesday, 04 June 2014

Time	Temp	Chill	HIndex	Humid	Dewpt	 Wind 	HiWind	WindDir	Rain 	Barom
-----	----	-----	------	-----	-----	------	------	-------	-----	-----
00:00	61.8	61.8	61.8	62	48.6	0	0	---	0.00	29.894 
00:05	61.5	61.5	61.5	63	48.8	0	0	---	0.00	29.894 
00:10	61.2	61.2	61.2	64	48.9	0	0	---	0.00	29.894 
00:15	60.9	60.9	60.9	65	49.1	0	0	---	0.00	29.889 
00:20	60.7	60.7	60.7	66	49.3	0	0	---	0.00	29.889 
00:25	60.5	60.5	60.5	66	49.1	0	0	---	0.00	29.889 
00:30	60.2	60.2	60.2	66	48.8	0	0	---	0.00	29.886 
00:35	60.1	60.1	60.1	67	49.1	0	0	---	0.00	29.886 
00:40	59.9	59.9	59.9	68	49.3	0	0	---	0.00	29.886 
00:45	59.6	59.6	59.6	69	49.4	0	0	---	0.00	29.890 
00:50	59.5	59.5	59.5	69	49.3	0	0	---	0.00	29.890 
00:55	59.3	59.3	59.3	69	49.1	0	0	---	0.00	29.890 
01:00	59.2	59.2	59.2	70	49.4	0	0	---	0.00	29.885 
01:05	58.9	58.9	58.9	70	49.1	0	0	---	0.00	29.885 
01:10	58.7	58.7	58.7	71	49.3	0	0	---	0.00	29.885 
01:15	58.6	58.6	58.6	72	49.6	0	0	---	0.00	29.896 
01:20	58.6	58.6	58.6	73	50.0	0	0	---	0.00	29.896 
01:25	58.4	58.4	58.4	73	49.8	0	0	---	0.00	29.896 
01:30	58.3	58.3	58.3	75	50.4	0	0	---	0.00	29.901 
01:35	58.3	58.3	58.3	75	50.4	0	0	---	0.00	29.901 
01:40	58.3	58.3	58.3	76	50.8	0	0	---	0.00	29.901 
01:45	58.1	58.1	58.1	76	50.6	0	0	---	0.00	29.908 
01:50	58.0	58.0	58.0	76	50.5	0	0	---	0.00	29.908 
01:55	57.8	57.8	57.8	77	50.6	0	0	---	0.00	29.908 
02:00	57.8	57.8	57.8	77	50.6	0	0	---	0.00	29.909 
02:05	57.6	57.6	57.6	77	50.4	0	0	---	0.00	29.909 
02:10	57.6	57.6	57.6	77	50.4	0	0	---	0.00	29.909 
02:15	57.6	57.6	57.6	78	50.8	0	0	---	0.00	29.905 
02:20	57.5	57.5	57.5	78	50.7	0	0	---	0.00	29.905 
02:25	57.5	57.5	57.5	79	51.0	0	0	---	0.00	29.905 
02:30	57.3	57.3	57.3	79	50.8	0	1	338	0.00	29.897 
02:35	57.5	57.5	57.5	79	51.0	0	0	---	0.00	29.897 
02:40	57.8	57.8	57.8	78	51.0	0	0	---	0.00	29.897 
02:45	58.0	58.0	58.0	78	51.2	0	0	---	0.00	29.898 
02:50	58.1	58.1	58.1	77	50.9	0	0	---	0.00	29.898 
02:55	58.1	58.1	58.1	77	50.9	0	0	---	0.00	29.898 
03:00	58.1	58.1	58.1	77	50.9	0	0	---	0.00	29.897 
03:05	58.1	58.1	58.1	77	50.9	0	0	---	0.00	29.897 
03:10	58.0	58.0	58.0	77	50.8	0	0	---	0.00	29.897 
03:15	58.0	58.0	58.0	78	51.2	0	0	---	0.00	29.893 
03:20	58.0	58.0	58.0	78	51.2	0	0	---	0.00	29.893 
03:25	57.8	57.8	57.8	78	51.0	0	0	---	0.00	29.893 
03:30	57.8	57.8	57.8	79	51.3	0	0	---	0.00	29.892 
03:35	57.6	57.6	57.6	79	51.1	0	0	---	0.00	29.892 
03:40	57.6	57.6	57.6	79	51.1	0	0	---	0.00	29.892 
03:45	57.5	57.5	57.5	79	51.0	0	0	---	0.00	29.890 
03:50	57.5	57.5	57.5	80	51.4	0	0	---	0.00	29.890 
03:55	57.3	57.3	57.3	80	51.2	0	0	---	0.00	29.890 
04:00	57.3	57.3	57.3	80	51.2	0	0	---	0.00	29.885 
04:05	57.3	57.3	57.3	80	51.2	0	0	---	0.00	29.885 
04:10	57.2	57.2	57.2	80	51.1	0	0	---	0.00	29.885 
04:15	57.2	57.2	57.2	80	51.1	0	0	---	0.00	29.880 
04:20	57.0	57.0	57.0	80	50.9	0	0	---	0.00	29.880 
04:25	57.0	57.0	57.0	80	50.9	0	0	---	0.00	29.880 
04:30	56.9	56.9	56.9	81	51.1	0	0	---	0.00	29.883 
04:35	56.9	56.9	56.9	81	51.1	0	0	---	0.00	29.883 
04:40	56.7	56.7	56.7	81	50.9	0	0	---	0.00	29.883 
04:45	56.7	56.7	56.7	82	51.3	0	0	---	0.00	29.878 
04:50	56.6	56.6	56.6	82	51.2	0	0	---	0.00	29.878 
04:55	56.7	56.7	56.7	82	51.3	0	0	---	0.00	29.878 
05:00	56.7	56.7	56.7	83	51.6	0	0	---	0.00	29.879 
05:05	56.7	56.7	56.7	82	51.3	0	0	---	0.00	29.879 
05:10	56.7	56.7	56.7	83	51.6	0	0	---	0.00	29.879 
05:15	56.9	56.9	56.9	83	51.8	0	0	---	0.00	29.882 
05:20	57.0	57.0	57.0	82	51.6	0	0	---	0.00	29.882 
05:25	57.2	57.2	57.2	82	51.8	0	0	---	0.00	29.882 
05:30	57.3	57.3	57.3	82	51.9	0	0	---	0.00	29.880 
05:35	57.3	57.3	57.3	81	51.5	0	0	---	0.00	29.880 
05:40	57.5	57.5	57.5	81	51.7	0	0	---	0.00	29.880 
05:45	57.6	57.6	57.6	81	51.8	0	0	---	0.00	29.876 
05:50	57.8	57.8	57.8	81	52.0	0	0	---	0.00	29.876 
05:55	58.0	58.0	58.0	80	51.9	0	0	---	0.00	29.876 
06:00	58.1	58.1	58.1	80	52.0	0	0	---	0.00	29.877 
06:05	58.3	58.3	58.3	80	52.2	0	0	---	0.00	29.877 
06:10	58.4	58.4	58.4	80	52.3	0	0	---	0.00	29.877 
06:15	58.6	58.6	58.6	79	52.1	0	0	---	0.00	29.876 
06:20	58.6	58.6	58.6	78	51.8	0	0	---	0.00	29.876 
06:25	58.7	58.7	58.7	78	51.9	0	0	---	0.00	29.876 
06:30	58.7	58.7	58.7	78	51.9	0	0	---	0.00	29.880 
06:35	58.9	58.9	58.9	78	52.0	0	0	---	0.00	29.880 
06:40	59.0	59.0	59.0	79	52.5	0	0	---	0.00	29.880 
06:45	59.2	59.2	59.2	79	52.7	0	0	---	0.00	29.879 
06:50	59.2	59.2	59.2	78	52.3	0	0	---	0.00	29.879 
06:55	59.3	59.3	59.3	77	52.1	0	0	---	0.00	29.879 
07:00	59.5	59.5	59.5	78	52.6	0	1	338	0.00	29.868 
07:05	59.6	59.6	59.6	78	52.7	0	0	---	0.00	29.868 
07:10	59.6	59.6	59.6	77	52.4	0	0	---	0.00	29.868 
07:15	59.8	59.8	59.8	77	52.6	0	0	---	0.00	29.874 
07:20	59.9	59.9	59.9	77	52.7	0	0	---	0.00	29.874 
07:25	60.1	60.1	60.1	77	52.9	0	0	---	0.00	29.874 
07:30	60.2	60.2	60.2	77	53.0	0	0	---	0.00	29.864 
07:35	60.5	60.5	60.5	76	52.9	0	0	---	0.00	29.864 
07:40	60.7	60.7	60.7	75	52.7	0	0	---	0.00	29.864 
07:45	60.9	60.9	60.9	75	52.9	0	0	---	0.00	29.864 
07:50	61.0	61.0	61.0	75	53.0	0	0	---	0.00	29.864 
07:55	61.2	61.2	61.2	74	52.8	0	0	---	0.00	29.864 
08:00	61.5	61.5	61.5	74	53.1	0	0	---	0.00	29.865 
08:05	61.6	61.6	61.6	73	52.9	0	1	338	0.00	29.865 
08:10	61.8	61.8	61.8	73	53.0	0	0	---	0.00	29.865 
08:15	62.0	62.0	62.0	73	53.2	0	1	338	0.00	29.870 
08:20	62.1	62.1	62.1	73	53.3	0	1	338	0.00	29.870 
08:25	62.1	62.1	62.1	72	53.0	0	1	338	0.00	29.870 
08:30	62.1	62.1	62.1	71	52.6	0	0	---	0.00	29.886 
08:35	62.1	62.1	62.1	71	52.6	0	0	---	0.00	29.886 
08:40	62.4	62.4	62.4	72	53.2	0	1	22	0.00	29.886 
08:45	62.6	62.6	62.6	72	53.4	0	1	22	0.00	29.874 
08:50	62.6	62.6	62.6	71	53.1	0	2	45	0.00	29.874 
08:55	62.7	62.7	62.7	71	53.2	0	1	45	0.00	29.874 
09:00	62.9	62.9	62.9	72	53.7	0	0	---	0.00	29.860 
09:05	62.9	62.9	62.9	73	54.1	0	1	45	0.00	29.860 
09:10	62.9	62.9	62.9	74	54.5	0	1	45	0.00	29.860 
09:15	62.7	62.7	62.7	75	54.7	1	3	45	0.00	29.839 
09:20	62.6	62.6	62.6	76	54.9	0	3	45	0.01	29.839 
09:25	62.4	62.4	62.4	77	55.1	0	2	45	0.00	29.839 
09:30	62.4	62.4	62.4	78	55.4	0	1	45	0.00	29.839 
09:35	62.6	62.6	62.6	79	56.0	0	1	45	0.00	29.839 
09:40	62.6	62.6	62.6	78	55.6	1	4	45	0.00	29.839 
09:45	62.4	62.4	62.4	78	55.4	0	2	45	0.00	29.821 
09:50	62.4	62.4	62.4	79	55.8	0	1	45	0.00	29.821 
09:55	62.4	62.4	62.4	79	55.8	1	2	45	0.00	29.821 
10:00	62.4	62.4	62.4	79	55.8	0	2	45	0.00	29.810 
10:05	62.4	62.4	62.4	79	55.8	1	3	45	0.00	29.810 
10:10	62.4	62.4	62.4	78	55.4	1	5	68	0.00	29.810 
10:15	62.4	62.4	62.4	77	55.1	1	4	68	0.00	29.799 
10:20	62.4	62.4	62.4	77	55.1	0	2	68	0.00	29.799 
10:25	62.6	62.6	62.6	77	55.3	1	3	68	0.00	29.799 
10:30	62.6	62.6	62.6	77	55.3	1	3	68	0.01	29.796 
10:35	62.7	62.7	62.7	78	55.7	1	3	68	0.00	29.796 
10:40	62.6	62.6	62.6	79	56.0	1	5	68	0.00	29.796 
10:45	62.4	62.4	62.4	79	55.8	1	4	68	0.00	29.795 
10:50	62.4	62.4	62.4	81	56.5	0	1	68	0.01	29.795 
10:55	62.3	62.3	62.3	82	56.7	1	3	68	0.01	29.795 
11:00	62.1	62.1	62.1	83	56.9	0	2	68	0.00	29.796 
11:05	62.1	62.1	62.1	84	57.2	0	1	68	0.01	29.796 
11:10	62.0	62.0	62.0	85	57.4	0	1	68	0.01	29.796 
11:15	62.0	62.0	62.0	85	57.4	0	0	---	0.02	29.810 
11:20	61.8	61.8	61.8	87	57.9	0	2	68	0.00	29.810 
11:25	61.8	61.8	61.8	87	57.9	1	5	68	0.01	29.810 
11:30	61.5	61.5	61.5	88	57.9	1	4	68	0.00	29.792 
11:35	61.3	61.3	61.3	88	57.7	1	3	68	0.01	29.792 
11:40	61.3	61.3	61.3	89	58.0	0	2	68	0.01	29.792 
11:45	61.3	61.3	61.3	89	58.0	0	2	68	0.01	29.805 
11:50	61.3	61.3	61.3	89	58.0	0	0	---	0.01	29.805 
11:55	61.3	61.3	61.3	90	58.3	0	1	68	0.02	29.805 
12:00	61.3	61.3	61.3	90	58.3	0	2	68	0.01	29.796 
12:05	61.3	61.3	61.3	90	58.3	0	2	68	0.00	29.796 
12:10	61.0	61.0	61.0	90	58.0	0	5	112	0.01	29.796 
12:15	60.9	60.9	60.9	91	58.3	0	1	112	0.01	29.812 
12:20	60.9	60.9	60.9	91	58.3	0	1	112	0.03	29.812 
12:25	60.7	60.7	60.7	91	58.1	0	2	112	0.03	29.812 
12:30	60.7	60.7	60.7	92	58.4	0	2	112	0.02	29.813 
12:35	60.5	60.5	60.5	92	58.2	1	4	112	0.03	29.813 
12:40	60.5	60.5	60.5	92	58.2	1	3	68	0.02	29.813 
12:45	60.4	60.4	60.4	92	58.1	0	2	68	0.02	29.810 
12:50	60.2	60.2	60.2	92	57.9	1	4	68	0.02	29.810 
12:55	60.2	60.2	60.2	93	58.2	1	5	90	0.01	29.810 
13:00	60.2	60.2	60.2	93	58.2	2	4	90	0.02	29.799 
13:05	60.1	60.1	60.1	93	58.1	2	9	90	0.01	29.799 
13:10	60.1	60.1	60.1	93	58.1	1	4	90	0.03	29.799 
13:15	60.1	60.1	60.1	93	58.1	2	6	90	0.04	29.793 
13:20	60.1	60.1	60.1	93	58.1	2	7	112	0.02	29.793 
13:25	59.9	59.9	59.9	94	58.2	1	4	90	0.00	29.793 
13:30	60.1	60.1	60.1	94	58.4	3	10	90	0.00	29.771 
13:35	60.1	60.1	60.1	94	58.4	2	7	112	0.01	29.771 
13:40	59.9	59.9	59.9	94	58.2	4	7	112	0.01	29.771 
13:45	59.8	59.8	59.8	94	58.1	3	10	90	0.00	29.767 
13:50	59.6	59.6	59.6	94	57.9	5	13	90	0.02	29.767 
13:55	59.5	59.5	59.5	94	57.8	4	9	90	0.01	29.767 
14:00	59.8	59.8	59.8	94	58.1	3	6	90	0.02	29.763 
14:05	59.6	59.6	59.6	94	57.9	4	7	90	0.01	29.763 
14:10	59.3	59.3	59.3	94	57.6	3	7	90	0.00	29.763 
14:15	59.0	59.0	59.0	94	57.3	5	12	90	0.01	29.761 
14:20	59.0	59.0	59.0	94	57.3	3	7	90	0.01	29.761 
14:25	59.3	59.3	59.3	94	57.6	2	9	112	0.01	29.761 
14:30	59.5	59.5	59.5	95	58.1	2	7	90	0.01	29.758 
14:35	59.6	59.6	59.6	94	57.9	3	7	90	0.01	29.758 
14:40	59.8	59.8	59.8	95	58.4	2	7	90	0.01	29.758 
14:45	59.8	59.8	59.8	95	58.4	2	10	90	0.01	29.761 
14:50	59.8	59.8	59.8	95	58.4	2	7	135	0.01	29.761 
14:55	59.6	59.6	59.6	94	57.9	2	5	112	0.01	29.761 
15:00	59.3	59.3	59.3	94	57.6	3	7	112	0.01	29.769 
15:05	59.0	59.0	59.0	94	57.3	3	10	112	0.01	29.769 
15:10	59.0	59.0	59.0	95	57.6	2	6	112	0.01	29.769 
15:15	58.9	58.9	58.9	94	57.2	3	6	90	0.00	29.769 
15:20	58.6	58.6	58.6	94	56.9	3	6	112	0.01	29.769 
15:25	58.4	58.4	58.4	95	57.0	2	7	90	0.00	29.769 
15:30	58.4	58.4	58.4	95	57.0	3	12	90	0.01	29.774 
15:35	58.4	58.4	58.4	95	57.0	3	9	90	0.00	29.774 
15:40	58.3	58.3	58.3	95	56.9	2	7	112	0.00	29.774 
15:45	58.3	58.3	58.3	95	56.9	2	11	90	0.01	29.776 
15:50	58.3	58.3	58.3	95	56.9	2	10	90	0.00	29.776 
15:55	58.3	58.3	58.3	95	56.9	2	6	90	0.01	29.776 
16:00	58.3	58.3	58.3	95	56.9	2	6	112	0.00	29.782 
16:05	58.4	58.4	58.4	95	57.0	2	9	68	0.00	29.782 
16:10	58.4	58.4	58.4	95	57.0	3	9	90	0.01	29.782 
16:15	58.6	58.6	58.6	95	57.2	3	7	90	0.01	29.778 
16:20	58.7	58.7	58.7	95	57.3	2	5	112	0.00	29.778 
16:25	58.9	58.9	58.9	95	57.5	2	7	112	0.00	29.778 
16:30	59.2	59.2	59.2	95	57.8	1	5	68	0.01	29.778 
16:35	59.3	59.3	59.3	95	57.9	2	5	135	0.00	29.778 
16:40	59.3	59.3	59.3	95	57.9	2	5	112	0.00	29.778 
16:45	59.3	59.3	59.3	95	57.9	2	7	90	0.00	29.779 
16:50	59.5	59.5	59.5	95	58.1	2	7	90	0.00	29.779 
16:55	59.5	59.5	59.5	95	58.1	2	6	90	0.00	29.779 
17:00	59.5	59.5	59.5	95	58.1	2	6	112	0.00	29.784 
17:05	59.6	59.6	59.6	95	58.2	3	7	90	0.00	29.784 
17:10	59.5	59.5	59.5	95	58.1	3	7	112	0.00	29.784 
17:15	59.6	59.6	59.6	95	58.2	2	6	112	0.00	29.781 
17:20	59.8	59.8	59.8	95	58.4	2	5	90	0.00	29.781 
17:25	59.8	59.8	59.8	94	58.1	1	5	90	0.00	29.781 
17:30	59.8	59.8	59.8	94	58.1	3	9	90	0.00	29.782 
17:35	59.9	59.9	59.9	94	58.2	2	4	112	0.00	29.782 
17:40	59.8	59.8	59.8	93	57.8	3	10	112	0.00	29.782 
17:45	59.8	59.8	59.8	93	57.8	3	7	90	0.00	29.785 
17:50	59.8	59.8	59.8	92	57.5	3	7	90	0.00	29.785 
17:55	59.5	59.5	59.5	91	56.9	4	10	90	0.00	29.785 
18:00	59.6	59.6	59.6	91	57.0	2	6	90	0.00	29.790 
18:05	59.5	59.5	59.5	90	56.6	2	6	90	0.00	29.790 
18:10	59.5	59.5	59.5	89	56.3	3	6	112	0.00	29.790 
18:15	59.6	59.6	59.6	89	56.4	4	10	90	0.00	29.783 
18:20	59.8	59.8	59.8	88	56.2	3	10	90	0.00	29.783 
18:25	59.9	59.9	59.9	88	56.3	1	4	112	0.00	29.783 
18:30	60.1	60.1	60.1	88	56.5	2	5	112	0.00	29.795 
18:35	60.1	60.1	60.1	87	56.2	2	5	112	0.00	29.795 
18:40	60.1	60.1	60.1	87	56.2	3	6	90	0.00	29.795 
18:45	60.2	60.2	60.2	87	56.3	2	7	90	0.00	29.795 
18:50	60.4	60.4	60.4	87	56.5	2	5	112	0.00	29.795 
18:55	60.4	60.4	60.4	87	56.5	2	6	90	0.00	29.795 
19:00	60.5	60.5	60.5	87	56.6	2	7	90	0.00	29.795 
19:05	60.4	60.4	60.4	86	56.2	2	6	112	0.00	29.795 
19:10	60.4	60.4	60.4	86	56.2	3	7	90	0.00	29.795 
19:15	60.4	60.4	60.4	85	55.9	2	6	90	0.00	29.794 
19:20	60.4	60.4	60.4	84	55.5	3	10	90	0.00	29.794 
19:25	60.5	60.5	60.5	85	56.0	2	5	90	0.00	29.794 
19:30	60.5	60.5	60.5	84	55.6	3	7	90	0.00	29.793 
19:35	60.7	60.7	60.7	84	55.8	2	5	135	0.00	29.793 
19:40	60.5	60.5	60.5	84	55.6	2	4	135	0.00	29.793 
19:45	60.5	60.5	60.5	84	55.6	1	5	22	0.00	29.790 
19:50	60.7	60.7	60.7	84	55.8	1	3	90	0.00	29.790 
19:55	60.7	60.7	60.7	84	55.8	1	5	112	0.00	29.790 
20:00	60.9	60.9	60.9	84	56.0	0	2	112	0.00	29.800 
20:05	60.7	60.7	60.7	84	55.8	0	3	112	0.00	29.800 
20:10	60.4	60.4	60.4	84	55.5	0	3	112	0.00	29.800 
20:15	60.4	60.4	60.4	85	55.9	0	1	112	0.00	29.812 
20:20	60.4	60.4	60.4	85	55.9	0	2	112	0.00	29.812 
20:25	60.5	60.5	60.5	85	56.0	0	1	112	0.00	29.812 
20:30	60.5	60.5	60.5	85	56.0	0	2	112	0.00	29.821 
20:35	60.5	60.5	60.5	85	56.0	0	3	112	0.00	29.821 
20:40	60.5	60.5	60.5	85	56.0	0	1	112	0.00	29.821 
20:45	60.5	60.5	60.5	85	56.0	0	1	112	0.00	29.825 
20:50	60.4	60.4	60.4	86	56.2	0	1	112	0.00	29.825 
20:55	60.2	60.2	60.2	86	56.0	0	1	112	0.00	29.825 
21:00	60.1	60.1	60.1	86	55.9	0	0	---	0.00	29.826 
21:05	59.9	59.9	59.9	86	55.7	0	0	---	0.00	29.826 
21:10	59.8	59.8	59.8	86	55.6	0	0	---	0.00	29.826 
21:15	59.6	59.6	59.6	87	55.7	0	1	112	0.00	29.826 
21:20	59.5	59.5	59.5	87	55.6	0	0	---	0.00	29.826 
21:25	59.3	59.3	59.3	87	55.4	0	0	---	0.00	29.826 
21:30	59.2	59.2	59.2	88	55.6	0	0	---	0.00	29.826 
21:35	58.9	58.9	58.9	88	55.3	0	0	---	0.00	29.826 
21:40	58.7	58.7	58.7	88	55.2	0	0	---	0.00	29.826 
21:45	58.6	58.6	58.6	88	55.1	0	0	---	0.00	29.824 
21:50	58.6	58.6	58.6	89	55.4	0	0	---	0.00	29.824 
21:55	58.4	58.4	58.4	89	55.2	0	0	---	0.00	29.824 
22:00	58.3	58.3	58.3	89	55.1	0	0	---	0.00	29.830 
22:05	58.3	58.3	58.3	90	55.4	0	0	---	0.00	29.830 
22:10	58.1	58.1	58.1	90	55.2	0	0	---	0.00	29.830 
22:15	58.1	58.1	58.1	90	55.2	0	0	---	0.00	29.831 
22:20	58.0	58.0	58.0	90	55.1	0	0	---	0.00	29.831 
22:25	57.8	57.8	57.8	91	55.2	0	0	---	0.00	29.831 
22:30	57.6	57.6	57.6	91	55.0	0	0	---	0.00	29.831 
22:35	57.5	57.5	57.5	91	54.9	0	0	---	0.00	29.831 
22:40	57.3	57.3	57.3	91	54.7	0	0	---	0.00	29.831 
22:45	57.2	57.2	57.2	91	54.6	0	0	---	0.00	29.833 
22:50	57.0	57.0	57.0	91	54.4	0	0	---	0.00	29.833 
22:55	56.9	56.9	56.9	92	54.6	0	0	---	0.00	29.833 
23:00	56.7	56.7	56.7	92	54.4	0	0	---	0.00	29.833 
23:05	56.6	56.6	56.6	92	54.3	0	0	---	0.00	29.833 
23:10	56.3	56.3	56.3	92	54.0	0	0	---	0.00	29.833 
23:15	56.2	56.2	56.2	92	53.9	0	0	---	0.00	29.834 
23:20	56.0	56.0	56.0	92	53.7	0	0	---	0.00	29.834 
23:25	56.0	56.0	56.0	92	53.7	0	0	---	0.00	29.834 
23:30	56.2	56.2	56.2	93	54.2	0	0	---	0.00	29.835 
23:35	56.3	56.3	56.3	93	54.3	0	0	---	0.00	29.835 
23:40	56.5	56.5	56.5	93	54.5	0	1	112	0.00	29.835 
23:45	56.6	56.6	56.6	93	54.6	0	2	112	0.00	29.835 
23:50	56.7	56.7	56.7	93	54.7	0	1	112	0.00	29.835 
23:55	56.7	56.7	56.7	93	54.7	0	0	---	0.00	29.835 

CoCoRaHS
IN-AL-39
A2 Web Hosting
Creative Commons License
GoDaddy
search engine by freefind advanced

loaded 2018-11-15 05:33:02 • last modified 2010-11-18 10:43:29
Privacy PolicyDisclaimer
• wx.awcolley.com is powered by PmWiki v.2002016 •
• all content (unless otherwise noted) © 2018 A W Colley